Time;durP1;ratioP1;P1;durP2;ratioP2;P2;SDS_P1;SDS_P2;PMS_P1;PMS_P2;Temp;Humidity;BMP_temperature;BMP_pressure;BME280_temperature;BME280_humidity;BME280_pressure;Samples;Min_cycle;Max_cycle;Signal;HPM_P1;HPM_P2
2023/12/24 00:02:04;;;;;;;10.17;1.20;;;10.30;99.90;;;;;;4986678;28;20022;-85
2023/12/24 00:04:30;;;;;;;10.68;1.15;;;10.40;99.90;;;;;;5002758;28;20026;-85
2023/12/24 00:06:56;;;;;;;7.15;1.35;;;10.40;99.90;;;;;;5003338;28;20434;-86
2023/12/24 00:09:21;;;;;;;11.82;1.25;;;10.40;99.90;;;;;;5003220;28;20023;-85
2023/12/24 00:11:47;;;;;;;7.22;1.13;;;10.40;99.90;;;;;;5003151;28;20053;-85
2023/12/24 00:14:13;;;;;;;7.72;0.90;;;10.40;99.90;;;;;;5003344;28;20054;-85
2023/12/24 00:16:41;;;;;;;10.90;1.20;;;10.40;99.90;;;;;;5002538;28;20490;-85
2023/12/24 00:19:07;;;;;;;8.45;0.88;;;10.40;99.90;;;;;;5003226;28;20046;-86
2023/12/24 00:21:33;;;;;;;7.57;1.38;;;10.40;99.90;;;;;;5002274;28;20046;-86
2023/12/24 00:23:58;;;;;;;7.73;1.27;;;10.40;99.90;;;;;;5003265;28;20367;-85
2023/12/24 00:26:24;;;;;;;10.73;1.02;;;10.40;99.90;;;;;;5002723;28;20049;-85
2023/12/24 00:28:51;;;;;;;8.15;1.23;;;10.40;99.90;;;;;;5002708;28;20034;-86
2023/12/24 00:31:17;;;;;;;8.17;1.23;;;10.50;99.90;;;;;;5004454;28;20056;-85
2023/12/24 00:33:43;;;;;;;9.75;0.90;;;10.50;99.90;;;;;;5004158;28;20105;-85
2023/12/24 00:36:08;;;;;;;3.80;0.68;;;10.50;99.90;;;;;;5005439;28;20046;-86
2023/12/24 00:38:34;;;;;;;10.85;1.10;;;10.50;99.90;;;;;;5002734;28;20042;-85
2023/12/24 00:41:00;;;;;;;8.50;1.10;;;10.50;99.90;;;;;;5002995;28;20162;-83
2023/12/24 00:43:26;;;;;;;9.75;1.27;;;10.50;99.90;;;;;;5001932;28;20026;-85
2023/12/24 00:45:51;;;;;;;7.80;0.80;;;10.50;99.90;;;;;;5002267;28;20037;-84
2023/12/24 00:48:17;;;;;;;9.32;1.17;;;10.50;99.90;;;;;;5002950;28;20030;-85
2023/12/24 00:50:43;;;;;;;7.07;1.02;;;10.50;99.90;;;;;;5002216;28;20033;-86
2023/12/24 00:53:09;;;;;;;3.78;0.68;;;10.50;99.90;;;;;;5002845;28;20026;-85
2023/12/24 00:55:35;;;;;;;7.65;0.98;;;10.50;99.90;;;;;;5002674;28;20088;-85
2023/12/24 00:58:00;;;;;;;4.88;0.65;;;10.50;99.90;;;;;;5003021;28;20034;-86
2023/12/24 01:00:26;;;;;;;5.38;0.80;;;10.60;99.90;;;;;;5003075;28;20031;-85
2023/12/24 01:02:52;;;;;;;4.63;0.80;;;10.50;99.90;;;;;;5003612;28;20027;-85
2023/12/24 01:05:18;;;;;;;6.03;0.95;;;10.50;99.90;;;;;;5003458;28;20038;-85
2023/12/24 01:07:44;;;;;;;7.32;0.90;;;10.50;99.90;;;;;;5002166;28;20033;-86
2023/12/24 01:10:10;;;;;;;7.88;0.75;;;10.50;99.90;;;;;;5002075;28;20089;-85
2023/12/24 01:12:37;;;;;;;6.88;1.00;;;10.50;99.90;;;;;;5003861;28;20033;-85
2023/12/24 01:15:03;;;;;;;5.80;0.80;;;10.50;99.90;;;;;;5004268;28;20042;-85
2023/12/24 01:17:29;;;;;;;10.20;1.80;;;10.50;99.90;;;;;;5006657;28;20093;-86
2023/12/24 01:19:56;;;;;;;4.82;0.60;;;10.50;99.90;;;;;;5001817;28;20034;-85
2023/12/24 01:22:21;;;;;;;4.18;0.70;;;10.50;99.90;;;;;;5002067;28;20026;-85
2023/12/24 01:24:47;;;;;;;6.43;1.00;;;10.50;99.90;;;;;;5001970;28;20018;-86
2023/12/24 01:27:13;;;;;;;4.97;1.00;;;10.50;99.90;;;;;;5001968;28;20072;-86
2023/12/24 01:29:38;;;;;;;4.25;0.88;;;10.50;99.90;;;;;;5000588;28;20076;-85
2023/12/24 01:32:04;;;;;;;9.20;1.13;;;10.50;99.90;;;;;;5002049;28;20022;-85
2023/12/24 01:34:30;;;;;;;6.47;1.27;;;10.50;99.90;;;;;;5000723;28;20050;-86
2023/12/24 01:36:56;;;;;;;6.82;0.63;;;10.50;99.90;;;;;;5001855;28;20021;-86
2023/12/24 01:39:22;;;;;;;5.97;0.82;;;10.50;99.90;;;;;;5001375;28;20021;-87
2023/12/24 01:41:47;;;;;;;4.22;0.95;;;10.50;99.90;;;;;;5001095;28;20116;-87
2023/12/24 01:44:13;;;;;;;4.75;1.10;;;10.50;99.90;;;;;;5001615;28;20027;-87
2023/12/24 01:46:40;;;;;;;5.93;1.17;;;10.40;99.90;;;;;;5000851;28;20131;-87
2023/12/24 01:49:07;;;;;;;6.43;1.55;;;10.40;99.90;;;;;;5001540;28;20113;-86
2023/12/24 01:51:34;;;;;;;8.00;1.50;;;10.30;99.90;;;;;;5002077;28;20038;-86
2023/12/24 01:54:01;;;;;;;7.47;1.13;;;10.30;99.90;;;;;;5001219;28;20038;-87
2023/12/24 01:56:28;;;;;;;7.95;1.48;;;10.30;99.90;;;;;;5000647;28;20022;-86
2023/12/24 01:58:54;;;;;;;5.88;1.35;;;10.20;99.90;;;;;;5001178;28;20102;-87
2023/12/24 02:01:20;;;;;;;6.67;1.70;;;10.20;99.90;;;;;;5001773;28;20511;-87
2023/12/24 02:03:46;;;;;;;6.43;1.70;;;10.10;99.90;;;;;;5000824;28;20483;-87
2023/12/24 02:06:13;;;;;;;7.00;1.63;;;10.10;99.90;;;;;;5000871;28;20478;-87
2023/12/24 02:08:40;;;;;;;7.47;1.87;;;10.00;99.90;;;;;;5000470;28;20475;-88
2023/12/24 02:11:07;;;;;;;7.07;1.97;;;9.90;99.90;;;;;;5000199;28;20041;-88
2023/12/24 02:13:33;;;;;;;10.90;2.53;;;9.80;99.90;;;;;;5000218;28;20049;-86
2023/12/24 02:16:02;;;;;;;8.57;2.87;;;9.70;99.90;;;;;;5001033;28;20015;-87
2023/12/24 02:18:28;;;;;;;7.53;2.20;;;9.60;99.90;;;;;;5001325;28;20030;-87
2023/12/24 02:21:07;;;;;;;12.30;3.40;;;9.60;99.90;;;;;;5000640;28;20045;-87
2023/12/24 02:23:32;;;;;;;8.20;2.73;;;9.50;99.90;;;;;;5000938;28;20027;-88
2023/12/24 02:26:09;;;;;;;13.20;3.97;;;9.40;99.90;;;;;;5000405;28;20030;-87
2023/12/24 02:28:44;;;;;;;12.80;4.47;;;9.40;99.90;;;;;;5000279;28;20049;-87
2023/12/24 02:31:14;;;;;;;15.30;4.47;;;9.40;99.90;;;;;;5001720;28;20034;-87
2023/12/24 02:33:41;;;;;;;12.37;5.00;;;9.30;99.90;;;;;;5000516;28;20054;-87
2023/12/24 02:36:11;;;;;;;13.67;4.63;;;9.30;99.90;;;;;;5000452;28;20026;-87
2023/12/24 02:38:37;;;;;;;13.87;5.23;;;9.30;99.90;;;;;;5000715;28;20090;-88
2023/12/24 02:41:04;;;;;;;12.77;4.60;;;9.30;99.90;;;;;;5000205;28;20066;-87
2023/12/24 02:43:34;;;;;;;12.13;5.67;;;9.30;99.90;;;;;;4999712;28;20093;-88
2023/12/24 02:46:01;;;;;;;15.40;5.47;;;9.30;99.90;;;;;;5001743;28;20026;-88
2023/12/24 02:48:26;;;;;;;14.00;4.73;;;9.30;99.90;;;;;;5000560;28;20015;-89
2023/12/24 02:50:52;;;;;;;11.00;4.60;;;9.30;99.90;;;;;;5000638;28;20499;-89
2023/12/24 02:53:18;;;;;;;16.17;6.27;;;9.30;99.90;;;;;;5000654;28;20031;-88
2023/12/24 02:55:44;;;;;;;20.50;6.20;;;9.30;99.90;;;;;;5000308;28;20026;-89
2023/12/24 02:58:10;;;;;;;14.47;5.30;;;9.30;99.90;;;;;;5000379;28;20435;-88
2023/12/24 03:00:36;;;;;;;14.77;6.17;;;9.30;99.90;;;;;;5001186;28;20108;-88
2023/12/24 03:03:02;;;;;;;16.40;7.17;;;9.40;99.90;;;;;;5000461;28;20023;-88
2023/12/24 03:05:27;;;;;;;15.03;6.23;;;9.40;99.90;;;;;;5000095;28;20114;-88
2023/12/24 03:07:53;;;;;;;16.60;5.80;;;9.40;99.90;;;;;;5000095;28;20084;-87
2023/12/24 03:10:19;;;;;;;14.60;5.73;;;9.40;99.90;;;;;;5000050;28;20038;-87
2023/12/24 03:12:45;;;;;;;16.43;7.07;;;9.40;99.90;;;;;;4999323;28;20046;-87
2023/12/24 03:15:13;;;;;;;14.20;5.40;;;9.40;99.90;;;;;;5000271;28;20693;-89
2023/12/24 03:17:39;;;;;;;14.10;6.37;;;9.50;99.90;;;;;;4998912;28;20023;-87
2023/12/24 03:20:06;;;;;;;16.53;5.93;;;9.50;99.90;;;;;;5000361;28;20037;-88
2023/12/24 03:22:32;;;;;;;17.73;5.97;;;9.50;99.90;;;;;;5003732;28;20031;-87
2023/12/24 03:24:58;;;;;;;16.23;5.17;;;9.50;99.90;;;;;;5004043;28;20023;-88
2023/12/24 03:27:24;;;;;;;16.03;5.50;;;9.50;99.90;;;;;;5004142;28;20021;-88
2023/12/24 03:29:50;;;;;;;10.00;4.27;;;9.50;99.90;;;;;;5003497;28;20367;-87
2023/12/24 03:32:16;;;;;;;10.30;4.60;;;9.50;99.90;;;;;;5004045;28;20022;-88
2023/12/24 03:34:42;;;;;;;12.60;4.97;;;9.50;99.90;;;;;;5002904;28;20025;-88
2023/12/24 03:37:07;;;;;;;12.77;4.43;;;9.50;99.90;;;;;;5006163;28;20030;-88
2023/12/24 03:39:33;;;;;;;10.97;4.10;;;9.50;99.90;;;;;;5006221;28;20050;-89
2023/12/24 03:41:59;;;;;;;11.27;4.57;;;9.60;99.90;;;;;;5005581;28;20058;-88
2023/12/24 03:44:24;;;;;;;10.33;4.60;;;9.60;99.90;;;;;;5006843;28;20030;-89
2023/12/24 03:46:50;;;;;;;14.00;4.47;;;9.60;99.90;;;;;;5005288;28;20029;-90
2023/12/24 03:49:16;;;;;;;10.20;3.73;;;9.60;99.90;;;;;;5005627;28;20030;-90
2023/12/24 03:51:41;;;;;;;10.87;3.83;;;9.60;99.90;;;;;;5003538;28;20089;-88
2023/12/24 03:54:07;;;;;;;11.53;3.80;;;9.60;99.90;;;;;;5003835;28;20023;-88
2023/12/24 03:56:33;;;;;;;10.50;3.83;;;9.70;99.90;;;;;;5002928;28;20033;-89
2023/12/24 03:58:59;;;;;;;9.63;3.60;;;9.60;99.90;;;;;;5003652;28;20387;-88
2023/12/24 04:01:28;;;;;;;6.73;2.90;;;9.70;99.90;;;;;;5003226;28;20074;-87
2023/12/24 04:03:54;;;;;;;6.83;2.43;;;9.70;99.90;;;;;;5003139;28;20134;-89
2023/12/24 04:06:20;;;;;;;7.07;2.53;;;9.70;99.90;;;;;;5003989;28;20030;-89
2023/12/24 04:08:45;;;;;;;4.30;1.87;;;9.70;99.90;;;;;;5002786;28;20029;-88
2023/12/24 04:11:12;;;;;;;5.20;2.17;;;9.70;99.90;;;;;;5003597;28;20061;-88
2023/12/24 04:13:38;;;;;;;4.97;1.70;;;9.70;99.90;;;;;;5002731;28;20099;-89
2023/12/24 04:16:04;;;;;;;4.13;1.63;;;9.70;99.90;;;;;;5003343;28;20069;-88
2023/12/24 04:18:29;;;;;;;7.00;1.67;;;9.80;99.90;;;;;;5003051;28;20018;-89
2023/12/24 04:20:55;;;;;;;6.33;1.50;;;9.80;99.90;;;;;;5002967;28;20042;-88
2023/12/24 04:23:21;;;;;;;3.13;1.20;;;9.70;99.90;;;;;;5004478;28;20034;-88
2023/12/24 04:25:46;;;;;;;1.83;0.97;;;9.80;99.90;;;;;;5002091;28;20027;-86
2023/12/24 04:28:12;;;;;;;5.27;1.40;;;9.80;99.90;;;;;;5005029;28;20497;-87
2023/12/24 04:30:38;;;;;;;2.27;0.93;;;9.80;99.90;;;;;;5001539;28;20110;-87
2023/12/24 04:33:04;;;;;;;3.17;1.00;;;9.80;99.90;;;;;;5001851;28;20035;-87
2023/12/24 04:35:29;;;;;;;2.63;1.10;;;9.80;99.90;;;;;;5001141;28;20077;-87
2023/12/24 04:37:55;;;;;;;2.20;1.10;;;9.80;99.90;;;;;;5002766;28;20034;-88
2023/12/24 04:40:21;;;;;;;3.37;1.20;;;9.80;99.90;;;;;;4985604;28;20047;-88
2023/12/24 04:42:47;;;;;;;4.40;1.70;;;9.80;99.90;;;;;;4999508;28;20037;-89
2023/12/24 04:45:13;;;;;;;3.77;1.47;;;9.90;99.90;;;;;;4999545;28;20030;-88
2023/12/24 04:47:39;;;;;;;3.57;1.30;;;9.90;99.90;;;;;;4998934;28;20061;-90
2023/12/24 04:50:06;;;;;;;4.20;1.23;;;9.90;99.90;;;;;;4999515;28;20023;-89
2023/12/24 04:52:35;;;;;;;3.63;1.20;;;9.90;99.90;;;;;;4998568;28;20027;-89
2023/12/24 04:55:11;;;;;;;3.03;1.10;;;9.90;99.90;;;;;;4999557;28;20040;-88
2023/12/24 04:57:36;;;;;;;2.90;1.27;;;9.90;99.90;;;;;;4999521;28;20054;-89
2023/12/24 05:00:05;;;;;;;3.13;1.03;;;9.90;99.90;;;;;;4998285;28;20027;-88
2023/12/24 05:02:33;;;;;;;1.90;1.00;;;10.00;99.90;;;;;;4999457;28;20031;-91
2023/12/24 05:05:03;;;;;;;3.13;1.10;;;10.00;99.90;;;;;;4998555;28;20030;-89
2023/12/24 05:07:29;;;;;;;2.30;1.10;;;10.00;99.90;;;;;;4999539;28;20054;-90
2023/12/24 05:09:55;;;;;;;2.47;1.20;;;10.00;99.90;;;;;;4998898;28;20030;-89
2023/12/24 05:12:21;;;;;;;2.90;0.93;;;10.00;99.90;;;;;;4998878;28;20033;-87
2023/12/24 05:14:47;;;;;;;3.37;1.00;;;10.00;99.90;;;;;;4999473;28;20027;-87
2023/12/24 05:17:12;;;;;;;2.67;1.10;;;10.00;99.90;;;;;;4998100;28;20098;-87
2023/12/24 05:19:38;;;;;;;3.63;1.20;;;10.10;99.90;;;;;;4998989;28;20110;-88
2023/12/24 05:22:04;;;;;;;3.07;1.40;;;10.10;99.90;;;;;;4998062;28;20035;-88
2023/12/24 05:24:30;;;;;;;2.50;1.20;;;10.10;99.90;;;;;;4998933;28;20027;-89
2023/12/24 05:26:55;;;;;;;3.97;1.50;;;10.10;99.90;;;;;;4998130;28;20097;-88
2023/12/24 05:29:21;;;;;;;5.22;1.40;;;10.10;99.90;;;;;;4998777;28;20050;-88
2023/12/24 05:31:47;;;;;;;3.20;1.40;;;10.10;99.90;;;;;;4998533;28;20046;-87
2023/12/24 05:34:12;;;;;;;4.78;1.48;;;10.10;99.90;;;;;;4995074;28;20105;-89
2023/12/24 05:36:39;;;;;;;4.67;1.83;;;10.20;99.90;;;;;;4984971;28;20078;-88
2023/12/24 05:39:05;;;;;;;4.55;1.73;;;10.20;99.90;;;;;;4983062;28;20038;-88
2023/12/24 05:41:32;;;;;;;4.05;1.60;;;10.20;99.90;;;;;;5002271;28;20062;-92
2023/12/24 05:43:58;;;;;;;4.67;1.67;;;10.20;99.90;;;;;;4987964;28;20040;-87
2023/12/24 05:46:24;;;;;;;4.23;1.70;;;10.20;99.90;;;;;;5014740;28;20045;-87
2023/12/24 05:48:50;;;;;;;4.03;1.77;;;10.30;99.90;;;;;;5001867;28;20022;-90
2023/12/24 05:51:16;;;;;;;3.78;1.33;;;10.30;99.90;;;;;;4994825;28;20022;-90
2023/12/24 05:53:42;;;;;;;3.20;1.20;;;10.30;99.90;;;;;;5000465;28;20026;-88
2023/12/24 05:56:08;;;;;;;4.70;1.23;;;10.30;99.90;;;;;;4999496;28;20075;-89
2023/12/24 05:58:34;;;;;;;3.75;1.00;;;10.40;99.90;;;;;;4982968;28;20062;-88
2023/12/24 06:01:00;;;;;;;5.97;1.48;;;10.40;99.90;;;;;;4980969;28;20038;-89
2023/12/24 06:03:26;;;;;;;3.78;1.08;;;10.40;99.90;;;;;;4987534;28;20050;-89
2023/12/24 06:05:52;;;;;;;5.50;1.30;;;10.40;99.90;;;;;;4981187;28;20011;-89
2023/12/24 06:08:17;;;;;;;2.93;1.03;;;10.40;99.90;;;;;;4981325;28;20535;-89
2023/12/24 06:10:44;;;;;;;7.82;1.55;;;10.50;99.90;;;;;;4982536;28;20030;-89
2023/12/24 06:13:10;;;;;;;8.97;1.60;;;10.50;99.90;;;;;;4980774;28;20026;-89
2023/12/24 06:15:36;;;;;;;4.90;1.38;;;10.50;99.90;;;;;;4982395;28;20019;-89
2023/12/24 06:18:04;;;;;;;4.15;1.25;;;10.50;99.90;;;;;;4981331;28;20377;-90
2023/12/24 06:20:33;;;;;;;7.18;2.30;;;10.50;99.90;;;;;;4981583;28;20053;-90
2023/12/24 06:22:59;;;;;;;7.25;1.58;;;10.60;99.90;;;;;;4981224;28;20019;-89
2023/12/24 06:25:25;;;;;;;9.45;1.48;;;10.50;99.90;;;;;;4981390;28;20461;-88
2023/12/24 06:27:52;;;;;;;8.32;1.67;;;10.60;99.90;;;;;;4982099;28;20122;-89
2023/12/24 06:30:19;;;;;;;7.97;1.58;;;10.60;99.90;;;;;;4983296;28;20030;-89
2023/12/24 06:32:46;;;;;;;3.90;0.85;;;10.60;99.90;;;;;;4985027;28;20045;-88
2023/12/24 06:35:12;;;;;;;5.82;1.63;;;10.60;99.90;;;;;;4984005;28;20023;-88
2023/12/24 06:37:38;;;;;;;8.18;1.45;;;10.60;99.90;;;;;;4984925;28;20050;-89
2023/12/24 06:40:05;;;;;;;6.68;1.50;;;10.60;99.90;;;;;;4984382;28;20022;-89
2023/12/24 06:42:31;;;;;;;8.70;1.73;;;10.70;99.90;;;;;;4984746;28;20026;-87
2023/12/24 06:44:56;;;;;;;4.13;1.13;;;10.70;99.90;;;;;;4985303;28;20026;-87
2023/12/24 06:47:22;;;;;;;5.10;1.38;;;10.70;99.90;;;;;;4983999;28;20525;-87
2023/12/24 06:49:48;;;;;;;5.90;1.20;;;10.70;99.90;;;;;;4984941;28;20022;-87
2023/12/24 06:52:14;;;;;;;7.40;1.15;;;10.70;99.90;;;;;;4984353;28;20049;-87
2023/12/24 06:54:39;;;;;;;5.28;1.35;;;10.70;99.90;;;;;;4985379;28;20483;-87
2023/12/24 06:57:07;;;;;;;6.68;1.35;;;10.70;99.90;;;;;;5004503;28;20033;-88
2023/12/24 06:59:33;;;;;;;6.32;1.00;;;10.70;99.90;;;;;;4991514;28;20022;-87
2023/12/24 07:01:59;;;;;;;6.97;1.40;;;10.70;99.90;;;;;;4990161;28;20042;-87
2023/12/24 07:04:25;;;;;;;8.60;1.77;;;10.80;99.90;;;;;;4987857;28;20050;-87
2023/12/24 07:06:51;;;;;;;7.40;1.67;;;10.70;99.90;;;;;;4989161;28;20022;-88
2023/12/24 07:09:16;;;;;;;7.68;1.80;;;10.80;99.90;;;;;;4987780;28;20025;-88
2023/12/24 07:11:42;;;;;;;10.27;1.27;;;10.80;99.90;;;;;;4988817;28;20030;-88
2023/12/24 07:14:08;;;;;;;8.90;1.83;;;10.80;99.90;;;;;;4987700;28;20014;-88
2023/12/24 07:16:34;;;;;;;9.32;1.63;;;10.70;99.90;;;;;;4988482;28;20344;-90
2023/12/24 07:19:02;;;;;;;6.38;1.40;;;10.80;99.90;;;;;;4988316;28;20074;-88
2023/12/24 07:21:28;;;;;;;8.38;1.70;;;10.80;99.90;;;;;;4986525;28;20038;-87
2023/12/24 07:23:54;;;;;;;9.48;2.00;;;10.80;99.90;;;;;;4988510;28;20030;-85
2023/12/24 07:26:20;;;;;;;8.68;2.40;;;10.80;99.90;;;;;;4986607;28;20019;-85
2023/12/24 07:28:46;;;;;;;6.57;2.10;;;10.80;99.90;;;;;;4988148;28;20101;-86
2023/12/24 07:31:14;;;;;;;6.68;2.38;;;10.80;99.90;;;;;;5023101;28;20049;-84
2023/12/24 07:33:40;;;;;;;6.93;2.22;;;10.80;99.90;;;;;;5014755;28;20049;-86
2023/12/24 07:36:06;;;;;;;8.57;2.03;;;10.80;99.90;;;;;;5005992;28;20021;-84
2023/12/24 07:38:31;;;;;;;9.75;2.35;;;10.80;99.90;;;;;;5006790;28;20026;-84
2023/12/24 07:40:57;;;;;;;7.13;1.83;;;10.80;99.90;;;;;;5007487;28;20060;-84
2023/12/24 07:43:23;;;;;;;8.73;1.98;;;10.80;99.90;;;;;;5023587;28;20025;-85
2023/12/24 07:45:50;;;;;;;11.30;2.45;;;10.80;99.90;;;;;;5006585;28;20028;-85
2023/12/24 07:48:15;;;;;;;9.07;2.25;;;10.80;99.90;;;;;;5005820;28;20493;-85
2023/12/24 07:50:42;;;;;;;6.80;2.60;;;10.80;99.90;;;;;;5006167;28;20032;-86
2023/12/24 07:53:07;;;;;;;10.55;2.35;;;10.80;99.90;;;;;;5005957;28;20094;-85
2023/12/24 07:55:33;;;;;;;13.27;3.25;;;10.80;99.90;;;;;;5006394;28;20633;-85
2023/12/24 07:57:59;;;;;;;8.45;2.13;;;10.90;99.90;;;;;;5007307;28;20548;-86
2023/12/24 08:00:24;;;;;;;9.55;2.63;;;10.90;99.90;;;;;;5006026;28;20068;-86
2023/12/24 08:02:51;;;;;;;12.48;3.60;;;10.90;99.90;;;;;;5025001;28;20030;-85
2023/12/24 08:05:16;;;;;;;8.77;2.78;;;10.90;99.90;;;;;;5006623;28;20022;-85
2023/12/24 08:07:42;;;;;;;9.25;2.72;;;10.90;99.90;;;;;;5006809;28;20022;-85
2023/12/24 08:10:08;;;;;;;8.95;3.03;;;10.90;99.90;;;;;;5006582;28;20028;-85
2023/12/24 08:12:34;;;;;;;11.48;3.45;;;10.90;99.90;;;;;;5007063;28;20037;-86
2023/12/24 08:15:00;;;;;;;9.68;3.03;;;10.90;99.90;;;;;;5007296;28;20021;-85
2023/12/24 08:17:25;;;;;;;12.70;3.30;;;10.90;99.90;;;;;;5005612;28;20168;-85
2023/12/24 08:19:54;;;;;;;9.40;3.13;;;10.90;99.90;;;;;;5007031;28;20122;-86
2023/12/24 08:22:20;;;;;;;9.45;3.28;;;10.90;99.90;;;;;;5005610;28;20048;-85
2023/12/24 08:24:46;;;;;;;9.18;2.95;;;10.90;99.90;;;;;;5006763;28;20022;-86
2023/12/24 08:27:12;;;;;;;9.82;3.60;;;11.00;99.90;;;;;;5005620;28;20504;-86
2023/12/24 08:29:37;;;;;;;9.30;3.67;;;11.00;99.90;;;;;;5005904;28;20029;-86
2023/12/24 08:32:03;;;;;;;10.93;3.88;;;11.00;99.90;;;;;;5005972;28;20056;-86
2023/12/24 08:34:29;;;;;;;11.75;3.25;;;11.00;99.90;;;;;;5004469;28;20378;-85
2023/12/24 08:36:55;;;;;;;9.50;3.17;;;11.00;99.90;;;;;;5005981;28;20018;-85
2023/12/24 08:39:20;;;;;;;7.07;3.08;;;11.00;99.90;;;;;;5004497;28;20130;-86
2023/12/24 08:41:46;;;;;;;7.57;2.70;;;11.00;99.90;;;;;;5003298;28;20038;-85
2023/12/24 08:44:12;;;;;;;11.00;2.72;;;11.00;99.90;;;;;;4989863;28;20410;-87
2023/12/24 08:46:38;;;;;;;5.65;2.42;;;11.10;99.90;;;;;;4986489;28;20029;-87
2023/12/24 08:49:04;;;;;;;7.40;2.53;;;11.10;99.90;;;;;;4986100;28;20049;-88
2023/12/24 08:51:29;;;;;;;5.03;2.20;;;11.00;99.90;;;;;;4986024;28;20458;-86
2023/12/24 08:53:55;;;;;;;5.10;1.80;;;11.00;99.90;;;;;;4986999;28;20154;-87
2023/12/24 08:56:21;;;;;;;4.57;1.58;;;11.10;99.90;;;;;;4985843;28;20049;-91
2023/12/24 08:58:46;;;;;;;4.97;1.55;;;11.10;99.90;;;;;;4986371;28;20031;-87
2023/12/24 09:01:12;;;;;;;7.15;1.48;;;11.10;99.90;;;;;;4985762;28;20049;-87
2023/12/24 09:03:38;;;;;;;4.03;1.60;;;11.10;99.90;;;;;;4986425;28;20383;-87
2023/12/24 09:06:04;;;;;;;4.53;1.73;;;11.10;99.90;;;;;;4990641;28;20018;-85
2023/12/24 09:08:29;;;;;;;5.30;1.85;;;11.10;99.90;;;;;;5005081;28;20018;-87
2023/12/24 09:10:55;;;;;;;5.32;1.73;;;11.10;99.90;;;;;;5005768;28;20014;-86
2023/12/24 09:13:21;;;;;;;4.18;1.30;;;11.10;99.90;;;;;;5004149;28;20026;-87
2023/12/24 09:15:47;;;;;;;5.50;1.98;;;11.20;99.90;;;;;;5005665;28;20026;-87
2023/12/24 09:18:12;;;;;;;3.70;1.30;;;11.10;99.90;;;;;;4995756;28;20030;-87
2023/12/24 09:20:38;;;;;;;4.18;1.38;;;11.20;99.90;;;;;;5002867;28;20034;-87
2023/12/24 09:23:05;;;;;;;5.22;2.00;;;11.20;99.90;;;;;;4987560;28;20048;-87
2023/12/24 09:25:31;;;;;;;4.43;1.85;;;11.20;99.90;;;;;;5004634;28;20061;-87
2023/12/24 09:27:57;;;;;;;4.05;1.60;;;11.20;99.90;;;;;;5004774;28;20048;-88
2023/12/24 09:30:24;;;;;;;5.40;1.77;;;11.20;99.90;;;;;;5004260;28;20038;-87
2023/12/24 09:32:49;;;;;;;8.10;1.92;;;11.30;99.90;;;;;;5005715;28;20094;-87
2023/12/24 09:35:15;;;;;;;7.78;1.60;;;11.20;99.90;;;;;;5004280;28;20052;-88
2023/12/24 09:37:42;;;;;;;6.20;1.70;;;11.30;99.90;;;;;;5022867;28;20025;-86
2023/12/24 09:40:08;;;;;;;4.05;1.77;;;11.30;99.90;;;;;;5004299;28;20438;-87
2023/12/24 09:42:35;;;;;;;7.50;1.92;;;11.30;99.90;;;;;;5003843;28;20032;-88
2023/12/24 09:45:01;;;;;;;5.80;1.67;;;11.30;99.90;;;;;;5022610;28;20026;-88
2023/12/24 09:47:27;;;;;;;5.28;1.95;;;11.30;99.90;;;;;;5003552;28;20028;-87
2023/12/24 09:49:54;;;;;;;11.05;2.70;;;11.30;99.90;;;;;;4978569;28;20084;-88
2023/12/24 09:52:21;;;;;;;9.95;3.25;;;11.30;99.90;;;;;;4968215;28;20026;-87
2023/12/24 09:54:47;;;;;;;11.10;3.08;;;11.40;99.90;;;;;;5021641;28;20093;-88
2023/12/24 09:57:13;;;;;;;13.05;3.53;;;11.40;99.90;;;;;;5003995;28;20026;-87
2023/12/24 09:59:38;;;;;;;21.42;5.32;;;11.40;99.90;;;;;;5005041;28;20022;-86
2023/12/24 10:02:05;;;;;;;24.90;5.18;;;11.40;99.90;;;;;;5021139;28;20037;-87
2023/12/24 10:04:31;;;;;;;14.60;5.03;;;11.40;99.90;;;;;;5003674;28;20032;-87
2023/12/24 10:06:57;;;;;;;22.02;5.72;;;11.40;99.90;;;;;;5004787;28;20113;-87
2023/12/24 10:09:40;;;;;;;22.70;5.95;;;11.40;99.90;;;;;;4996918;28;20025;-88
2023/12/24 10:12:08;;;;;;;26.88;6.07;;;11.40;99.90;;;;;;5002856;28;20056;-86
2023/12/24 10:14:35;;;;;;;26.70;6.07;;;11.50;99.90;;;;;;5003715;28;20033;-87
2023/12/24 10:17:03;;;;;;;30.98;7.35;;;11.50;99.90;;;;;;5003796;28;20053;-86
2023/12/24 10:19:30;;;;;;;36.40;8.48;;;11.50;99.90;;;;;;5003814;28;20061;-87
2023/12/24 10:22:14;;;;;;;41.10;9.27;;;11.50;99.90;;;;;;5002677;28;20108;-86
2023/12/24 10:24:41;;;;;;;;;;;11.50;99.90;;;;;;5003991;28;20061;-87
2023/12/24 10:27:10;;;;;;;33.88;8.38;;;11.60;99.90;;;;;;5020475;28;19905;-86
2023/12/24 10:29:39;;;;;;;35.80;7.75;;;11.60;99.90;;;;;;5004305;28;20022;-86
2023/12/24 10:32:05;;;;;;;34.38;7.20;;;11.60;99.90;;;;;;5003227;28;20049;-86
2023/12/24 10:34:33;;;;;;;38.45;8.50;;;11.60;99.90;;;;;;5003367;28;20105;-84
2023/12/24 10:37:06;;;;;;;47.22;8.82;;;11.60;99.90;;;;;;5004626;28;20032;-85
2023/12/24 10:39:33;;;;;;;35.40;8.30;;;11.70;99.90;;;;;;5021258;28;20077;-86
2023/12/24 10:41:59;;;;;;;37.35;8.65;;;11.70;99.90;;;;;;5004295;28;20038;-85
2023/12/24 10:44:25;;;;;;;41.80;8.63;;;11.70;99.90;;;;;;5003238;28;20394;-86
2023/12/24 10:46:51;;;;;;;47.90;9.32;;;11.70;99.90;;;;;;5004018;28;20180;-86
2023/12/24 10:49:16;;;;;;;42.40;8.68;;;11.80;99.90;;;;;;5002204;28;20011;-85
2023/12/24 10:51:42;;;;;;;43.20;8.30;;;11.80;99.90;;;;;;5003484;28;20049;-86
2023/12/24 10:54:08;;;;;;;39.58;8.18;;;11.80;99.90;;;;;;5003919;28;20026;-85
2023/12/24 10:56:54;;;;;;;37.63;9.38;;;11.80;99.90;;;;;;4999665;28;20029;-85
2023/12/24 10:59:41;;;;;;;37.88;9.20;;;11.80;99.90;;;;;;5001888;28;20018;-85
2023/12/24 11:02:12;;;;;;;34.35;8.40;;;11.90;99.90;;;;;;5002329;28;20045;-86
2023/12/24 11:04:45;;;;;;;41.10;8.98;;;11.90;99.90;;;;;;5000861;28;20026;-86
2023/12/24 11:07:48;;;;;;;27.23;7.95;;;11.90;99.90;;;;;;5004562;28;20022;-86
2023/12/24 11:10:37;;;;;;;36.05;9.15;;;11.90;99.90;;;;;;5003052;28;20068;-86
2023/12/24 11:13:07;;;;;;;30.80;7.95;;;11.90;99.90;;;;;;5020731;28;20022;-87
2023/12/24 11:15:44;;;;;;;39.83;9.02;;;11.90;99.90;;;;;;5004344;28;20061;-85
2023/12/24 11:18:10;;;;;;;31.48;8.77;;;11.90;99.90;;;;;;5002846;28;20486;-86
2023/12/24 11:20:41;;;;;;;24.98;7.88;;;11.90;99.90;;;;;;5004014;28;20064;-86
2023/12/24 11:23:06;;;;;;;37.65;9.65;;;11.90;99.90;;;;;;5002539;28;20040;-87
2023/12/24 11:25:46;;;;;;;42.20;9.55;;;12.00;99.90;;;;;;5003397;28;20030;-87
2023/12/24 11:28:34;;;;;;;32.00;7.53;;;11.90;99.90;;;;;;5003922;28;20101;-86
2023/12/24 11:30:59;;;;;;;32.75;8.02;;;11.90;99.90;;;;;;5000970;28;20049;-86
2023/12/24 11:33:28;;;;;;;34.17;8.35;;;11.90;99.90;;;;;;5003328;28;20029;-86
2023/12/24 11:36:01;;;;;;;25.45;7.88;;;12.00;99.90;;;;;;5001992;28;20033;-87
2023/12/24 11:38:35;;;;;;;34.22;9.55;;;11.90;99.90;;;;;;5002191;28;20018;-86
2023/12/24 11:41:20;;;;;;;19.83;7.85;;;11.90;99.90;;;;;;5005612;28;20041;-84
2023/12/24 11:43:56;;;;;;;;;;;11.90;99.90;;;;;;5008278;28;20025;-87
2023/12/24 11:46:23;;;;;;;23.33;8.68;;;11.90;99.90;;;;;;5009889;28;19905;-88
2023/12/24 11:48:49;;;;;;;22.02;10.05;;;11.90;99.90;;;;;;5009082;28;20018;-87
2023/12/24 11:51:14;;;;;;;26.52;11.23;;;11.90;99.90;;;;;;5006144;28;20108;-87
2023/12/24 11:53:41;;;;;;;21.38;11.20;;;11.90;99.90;;;;;;4998205;28;20108;-88
2023/12/24 11:56:15;;;;;;;22.30;10.35;;;11.90;99.90;;;;;;5006122;28;20033;-88
2023/12/24 11:58:48;;;;;;;19.05;10.20;;;11.90;99.90;;;;;;5002783;28;20026;-89
2023/12/24 12:01:22;;;;;;;20.02;10.05;;;11.90;99.90;;;;;;4992692;28;20032;-88
2023/12/24 12:03:53;;;;;;;30.45;10.48;;;11.90;99.90;;;;;;5006157;28;20112;-87
2023/12/24 12:06:19;;;;;;;19.00;9.52;;;11.80;99.90;;;;;;4993781;28;20030;-87
2023/12/24 12:08:46;;;;;;;18.95;8.65;;;11.90;99.90;;;;;;5004606;28;20457;-87
2023/12/24 12:11:12;;;;;;;17.77;9.13;;;11.90;99.90;;;;;;5003009;28;20022;-88
2023/12/24 12:13:38;;;;;;;15.50;7.45;;;11.90;99.90;;;;;;4993847;28;20018;-88
2023/12/24 12:16:04;;;;;;;14.13;7.88;;;12.00;99.90;;;;;;5011145;28;20016;-89
2023/12/24 12:18:31;;;;;;;15.93;7.25;;;12.00;99.90;;;;;;5013560;28;20414;-89
2023/12/24 12:20:57;;;;;;;18.33;6.55;;;12.00;99.90;;;;;;5011226;28;20025;-88
2023/12/24 12:23:25;;;;;;;15.07;5.70;;;12.00;99.90;;;;;;5043420;28;20036;-88
2023/12/24 12:25:51;;;;;;;10.88;5.10;;;12.00;99.90;;;;;;4991983;28;20101;-88
2023/12/24 12:28:16;;;;;;;11.25;4.57;;;12.00;99.90;;;;;;5006242;28;20036;-88
2023/12/24 12:30:44;;;;;;;13.25;4.40;;;12.00;99.90;;;;;;5022440;28;20046;-88
2023/12/24 12:33:10;;;;;;;12.60;5.22;;;12.00;99.90;;;;;;5006465;28;20091;-88
2023/12/24 12:35:36;;;;;;;14.20;5.90;;;12.10;99.90;;;;;;5004102;28;20442;-87
2023/12/24 12:38:02;;;;;;;16.70;5.82;;;12.10;99.90;;;;;;4993339;28;20030;-87
2023/12/24 12:40:28;;;;;;;12.35;4.78;;;12.00;99.90;;;;;;5004810;28;20124;-87
2023/12/24 12:42:53;;;;;;;13.95;4.95;;;12.00;99.90;;;;;;5018372;28;20033;-87
2023/12/24 12:45:19;;;;;;;14.25;5.40;;;12.00;99.90;;;;;;5006201;28;20014;-87